Time;durP1;ratioP1;P1;durP2;ratioP2;P2;SDS_P1;SDS_P2;PMS_P1;PMS_P2;Temp;Humidity;BMP_temperature;BMP_pressure;BME280_temperature;BME280_humidity;BME280_pressure;Samples;Min_cycle;Max_cycle;Signal;HPM_P1;HPM_P2
2022/09/25 00:01:01;;;;;;;19.17;16.30;;;11.50;99.90;;;;;;5060417;28;20465;-77
2022/09/25 00:03:31;;;;;;;19.43;17.33;;;11.50;99.90;;;;;;5057781;28;20465;-77
2022/09/25 00:06:03;;;;;;;23.20;18.40;;;11.60;99.90;;;;;;5061278;28;20535;-76
2022/09/25 00:08:30;;;;;;;21.20;18.83;;;11.60;99.90;;;;;;5060638;28;20465;-77
2022/09/25 00:10:57;;;;;;;20.97;18.90;;;11.60;99.90;;;;;;5062022;28;20454;-76
2022/09/25 00:13:24;;;;;;;21.13;18.17;;;11.70;99.90;;;;;;5052437;28;20526;-76
2022/09/25 00:15:53;;;;;;;21.83;19.70;;;11.60;99.90;;;;;;5063649;28;20491;-77
2022/09/25 00:19:48;;;;;;;23.00;16.67;;;11.60;99.90;;;;;;5060093;28;21045;-77
2022/09/25 00:21:11;;;;;;;18.30;16.40;;;11.60;99.90;;;;;;5051280;28;20434;-77
2022/09/25 00:23:38;;;;;;;18.77;15.73;;;11.60;99.90;;;;;;5063384;28;20463;-77
2022/09/25 00:26:08;;;;;;;15.40;13.80;;;11.60;99.90;;;;;;5051272;28;20478;-77
2022/09/25 00:28:35;;;;;;;17.83;16.07;;;11.60;99.90;;;;;;5062224;28;20483;-76
2022/09/25 00:31:03;;;;;;;17.27;15.50;;;11.60;99.90;;;;;;5060957;28;20459;-76
2022/09/25 00:33:31;;;;;;;15.50;14.10;;;11.60;99.90;;;;;;5055774;28;21167;-77
2022/09/25 00:36:03;;;;;;;15.97;14.40;;;11.60;99.90;;;;;;5058367;28;21005;-76
2022/09/25 00:38:32;;;;;;;16.50;13.90;;;11.60;99.90;;;;;;5057205;28;20451;-77
2022/09/25 00:40:59;;;;;;;17.43;14.53;;;11.60;99.90;;;;;;5054008;28;20490;-77
2022/09/25 00:43:38;;;;;;;14.23;12.90;;;11.60;99.90;;;;;;5061527;28;20436;-77
2022/09/25 00:46:09;;;;;;;12.73;11.53;;;11.70;99.90;;;;;;5060082;28;20516;-77
2022/09/25 00:48:37;;;;;;;18.23;11.97;;;11.70;99.90;;;;;;5062384;28;20463;-76
2022/09/25 00:51:06;;;;;;;13.53;11.60;;;11.70;99.90;;;;;;5060110;28;21095;-77
2022/09/25 00:53:39;;;;;;;13.00;11.70;;;11.70;99.90;;;;;;5058054;28;20461;-76
2022/09/25 00:56:09;;;;;;;12.50;11.30;;;11.70;99.90;;;;;;5064086;28;20581;-76
2022/09/25 00:58:39;;;;;;;12.40;11.20;;;11.70;99.90;;;;;;5066106;28;20481;-76
2022/09/25 01:01:07;;;;;;;12.60;11.40;;;11.70;99.90;;;;;;5063194;28;20453;-76
2022/09/25 01:03:35;;;;;;;13.07;11.77;;;11.70;99.90;;;;;;5066341;28;20532;-76
2022/09/25 01:06:02;;;;;;;15.77;14.07;;;11.70;99.90;;;;;;5062087;28;20501;-76
2022/09/25 01:08:31;;;;;;;15.57;14.17;;;11.90;99.90;;;;;;5063464;28;20497;-76
2022/09/25 01:11:00;;;;;;;16.30;14.30;;;12.00;99.90;;;;;;5047365;28;20460;-76
2022/09/25 01:13:28;;;;;;;15.53;14.00;;;11.90;99.90;;;;;;5057745;28;20495;-76
2022/09/25 01:16:02;;;;;;;20.63;18.53;;;11.80;99.90;;;;;;5061329;28;20488;-76
2022/09/25 01:18:44;;;;;;;20.07;17.70;;;11.80;99.90;;;;;;5061791;28;20476;-76
2022/09/25 01:21:23;;;;;;;19.93;17.93;;;11.70;99.90;;;;;;5060444;28;20464;-76
2022/09/25 01:24:04;;;;;;;18.20;16.33;;;11.60;99.90;;;;;;5065562;28;20931;-76
2022/09/25 01:27:05;;;;;;;18.47;16.67;;;11.70;99.90;;;;;;5065767;28;20577;-76
2022/09/25 01:29:37;;;;;;;16.37;14.67;;;11.60;99.90;;;;;;5052829;28;20463;-76
2022/09/25 01:32:10;;;;;;;20.97;17.47;;;11.60;99.90;;;;;;5064056;28;20530;-76
2022/09/25 01:34:45;;;;;;;15.37;13.87;;;11.60;99.90;;;;;;5066555;28;20447;-76
2022/09/25 01:37:19;;;;;;;13.10;11.87;;;11.60;99.90;;;;;;5054964;28;20485;-76
2022/09/25 01:39:50;;;;;;;13.80;12.33;;;11.60;99.90;;;;;;5066392;28;20456;-76
2022/09/25 01:42:21;;;;;;;14.40;12.67;;;11.60;99.90;;;;;;5065004;28;20444;-76
2022/09/25 01:44:55;;;;;;;11.67;10.50;;;11.60;99.90;;;;;;5057395;28;20538;-76
2022/09/25 01:47:27;;;;;;;12.60;10.97;;;11.60;99.90;;;;;;5068450;28;20517;-76
2022/09/25 01:49:59;;;;;;;11.97;10.70;;;11.50;99.90;;;;;;5065943;28;20482;-76
2022/09/25 01:52:31;;;;;;;12.73;11.53;;;11.50;99.90;;;;;;5065484;28;20472;-76
2022/09/25 01:55:06;;;;;;;11.80;10.70;;;11.60;99.90;;;;;;5063247;28;20836;-76
2022/09/25 01:57:40;;;;;;;13.13;12.00;;;11.50;99.90;;;;;;5061412;28;20512;-76
2022/09/25 02:00:11;;;;;;;12.40;10.90;;;11.50;99.90;;;;;;5063243;28;20460;-76
2022/09/25 02:02:44;;;;;;;12.07;11.00;;;11.60;99.90;;;;;;5062767;28;20554;-76
2022/09/25 02:05:16;;;;;;;10.87;9.87;;;11.60;99.90;;;;;;5063564;28;20472;-76
2022/09/25 02:07:48;;;;;;;11.50;10.40;;;11.60;99.90;;;;;;5066165;28;20452;-75
2022/09/25 02:10:20;;;;;;;13.03;11.77;;;11.50;99.90;;;;;;5053887;28;20549;-76
2022/09/25 02:12:51;;;;;;;14.70;13.30;;;11.60;99.90;;;;;;5065832;28;20545;-76
2022/09/25 02:15:25;;;;;;;14.57;13.10;;;11.70;99.90;;;;;;5049856;28;20560;-75
2022/09/25 02:20:46;;;;;;;14.67;13.10;;;11.60;99.90;;;;;;5063988;28;20605;-76
2022/09/25 02:23:18;;;;;;;15.07;13.67;;;11.60;99.90;;;;;;5055463;28;20834;-76
2022/09/25 02:25:52;;;;;;;15.97;13.77;;;11.70;99.90;;;;;;5065112;28;20915;-76
2022/09/25 02:28:19;;;;;;;14.87;13.37;;;11.60;99.90;;;;;;5063973;28;20461;-76
2022/09/25 02:30:49;;;;;;;15.70;13.30;;;11.50;99.90;;;;;;5064978;28;20449;-76
2022/09/25 02:33:16;;;;;;;14.17;11.73;;;11.50;99.90;;;;;;5058170;28;20945;-76
2022/09/25 02:35:43;;;;;;;14.20;12.80;;;11.50;99.90;;;;;;5060883;28;20488;-76
2022/09/25 02:38:10;;;;;;;15.57;14.07;;;11.50;99.90;;;;;;5062506;28;20476;-76
2022/09/25 02:40:46;;;;;;;14.27;12.97;;;11.50;99.90;;;;;;5061739;28;20530;-76
2022/09/25 02:43:25;;;;;;;14.77;13.33;;;11.50;99.90;;;;;;5062935;28;20463;-76
2022/09/25 02:46:03;;;;;;;14.17;12.60;;;11.50;99.90;;;;;;5051577;28;20489;-76
2022/09/25 02:48:41;;;;;;;15.20;13.80;;;11.50;99.90;;;;;;5062035;28;20808;-76
2022/09/25 02:51:14;;;;;;;17.37;15.43;;;11.50;99.90;;;;;;5063284;28;20548;-76
2022/09/25 02:53:47;;;;;;;18.13;16.20;;;11.60;99.90;;;;;;5056911;28;20468;-76
2022/09/25 02:56:17;;;;;;;17.90;16.00;;;11.60;99.90;;;;;;5060126;28;20541;-76
2022/09/25 02:58:49;;;;;;;19.27;17.03;;;11.60;99.90;;;;;;5057019;28;20452;-76
2022/09/25 03:01:20;;;;;;;20.60;16.57;;;11.60;99.90;;;;;;5061993;28;20458;-77
2022/09/25 03:03:49;;;;;;;20.50;17.60;;;11.60;99.90;;;;;;5060637;28;20887;-76
2022/09/25 03:06:17;;;;;;;20.40;18.37;;;11.70;99.90;;;;;;5052829;28;20455;-76
2022/09/25 03:08:48;;;;;;;20.17;18.07;;;11.60;99.90;;;;;;5065560;28;20451;-76
2022/09/25 03:11:17;;;;;;;20.53;18.50;;;11.60;99.90;;;;;;5050137;28;20893;-76
2022/09/25 03:13:44;;;;;;;20.70;18.67;;;11.70;99.90;;;;;;5062009;28;20559;-76
2022/09/25 03:16:17;;;;;;;19.43;17.33;;;11.60;99.90;;;;;;5059845;28;20515;-76
2022/09/25 03:18:46;;;;;;;27.07;18.23;;;11.60;99.90;;;;;;5063135;28;20513;-76
2022/09/25 03:21:13;;;;;;;20.13;18.10;;;11.50;99.90;;;;;;5057699;28;20932;-76
2022/09/25 03:23:39;;;;;;;23.03;18.77;;;11.40;99.90;;;;;;5054388;28;20460;-76
2022/09/25 03:26:07;;;;;;;25.00;19.10;;;11.40;99.90;;;;;;5064501;28;20475;-76
2022/09/25 03:28:34;;;;;;;22.40;19.30;;;11.50;99.90;;;;;;5062062;28;20456;-76
2022/09/25 03:31:03;;;;;;;22.90;20.50;;;11.50;99.90;;;;;;5062722;28;20455;-76
2022/09/25 03:33:34;;;;;;;22.97;20.47;;;11.30;99.90;;;;;;5062899;28;20459;-75
2022/09/25 03:36:05;;;;;;;23.70;21.10;;;11.30;99.90;;;;;;5058583;28;20488;-75
2022/09/25 03:38:32;;;;;;;27.10;23.60;;;11.30;99.90;;;;;;5060050;28;20486;-76
2022/09/25 03:41:00;;;;;;;26.40;23.23;;;11.30;99.90;;;;;;5062951;28;20505;-76
2022/09/25 03:43:28;;;;;;;26.43;21.57;;;11.30;99.90;;;;;;5052937;28;20461;-75
2022/09/25 03:45:55;;;;;;;23.57;21.13;;;11.30;99.90;;;;;;5063717;28;20444;-75
2022/09/25 03:48:22;;;;;;;26.90;22.50;;;11.20;99.90;;;;;;5059390;28;20487;-76
2022/09/25 03:50:49;;;;;;;28.53;23.20;;;11.20;99.90;;;;;;5063363;28;20448;-76
2022/09/25 03:53:18;;;;;;;28.83;25.70;;;11.20;99.90;;;;;;5055728;28;21187;-76
2022/09/25 03:55:47;;;;;;;30.70;27.40;;;11.20;99.90;;;;;;5065966;28;20505;-76
2022/09/25 03:58:15;;;;;;;31.77;26.90;;;11.20;99.90;;;;;;5067653;28;20452;-76
2022/09/25 04:00:42;;;;;;;30.10;27.17;;;11.20;99.90;;;;;;5063916;28;20478;-76
2022/09/25 04:03:09;;;;;;;26.00;23.17;;;11.20;99.90;;;;;;5063382;28;20474;-75
2022/09/25 04:05:36;;;;;;;28.17;25.17;;;11.10;99.90;;;;;;5060017;28;20467;-76
2022/09/25 04:08:04;;;;;;;31.63;26.97;;;11.10;99.90;;;;;;5060559;28;20490;-75
2022/09/25 04:10:37;;;;;;;33.20;28.87;;;11.10;99.90;;;;;;5063408;28;20468;-76
2022/09/25 04:13:05;;;;;;;30.37;25.77;;;11.20;99.90;;;;;;5057502;28;20540;-76
2022/09/25 04:15:32;;;;;;;29.23;26.00;;;11.10;99.90;;;;;;5064486;28;20579;-76
2022/09/25 04:17:59;;;;;;;29.23;26.03;;;11.20;99.90;;;;;;5061594;28;20484;-76
2022/09/25 04:20:27;;;;;;;29.97;26.87;;;11.10;99.90;;;;;;5060254;28;20582;-76
2022/09/25 04:22:53;;;;;;;30.30;27.00;;;11.10;99.90;;;;;;5061829;28;20492;-76
2022/09/25 04:25:24;;;;;;;31.77;28.47;;;11.10;99.90;;;;;;5061825;28;20475;-76
2022/09/25 04:27:54;;;;;;;33.50;28.43;;;11.10;99.90;;;;;;5066294;28;21025;-76
2022/09/25 04:30:22;;;;;;;30.17;26.93;;;11.20;99.90;;;;;;5055620;28;20843;-76
2022/09/25 04:35:34;;;;;;;30.30;26.90;;;11.10;99.90;;;;;;5063021;28;20434;-76
2022/09/25 04:38:01;;;;;;;34.87;29.93;;;11.10;99.90;;;;;;5062662;28;20487;-76
2022/09/25 04:40:28;;;;;;;26.50;23.50;;;11.10;99.90;;;;;;5063476;28;20540;-76
2022/09/25 04:42:57;;;;;;;30.90;25.70;;;11.10;99.90;;;;;;5060226;28;20487;-76
2022/09/25 04:45:25;;;;;;;31.10;27.70;;;11.10;99.90;;;;;;5065981;28;20830;-76
2022/09/25 04:47:52;;;;;;;30.03;26.83;;;11.10;99.90;;;;;;5063243;28;20471;-76
2022/09/25 04:50:20;;;;;;;33.37;26.70;;;11.10;99.90;;;;;;5065333;28;20552;-76
2022/09/25 04:52:46;;;;;;;28.00;24.63;;;11.10;99.90;;;;;;5065637;28;20592;-76
2022/09/25 04:55:14;;;;;;;33.27;26.53;;;11.10;99.90;;;;;;5062553;28;20478;-76
2022/09/25 04:57:40;;;;;;;29.00;25.70;;;11.10;99.90;;;;;;5065917;28;20567;-76
2022/09/25 05:00:10;;;;;;;28.80;25.90;;;11.10;99.90;;;;;;5065748;28;20487;-76
2022/09/25 05:02:38;;;;;;;28.27;25.37;;;11.10;99.90;;;;;;5061763;28;20494;-76
2022/09/25 05:05:06;;;;;;;31.47;28.23;;;11.10;99.90;;;;;;5056053;28;20939;-76
2022/09/25 05:07:34;;;;;;;31.30;27.00;;;11.10;99.90;;;;;;5061933;28;20456;-76
2022/09/25 05:10:01;;;;;;;28.87;26.03;;;11.10;99.90;;;;;;5066436;28;20556;-76
2022/09/25 05:12:28;;;;;;;28.50;25.50;;;11.10;99.90;;;;;;5064068;28;20517;-76
2022/09/25 05:14:55;;;;;;;27.87;25.10;;;11.10;99.90;;;;;;5059497;28;20529;-76
2022/09/25 05:17:23;;;;;;;27.70;24.60;;;11.20;99.90;;;;;;5060161;28;20541;-76
2022/09/25 05:19:50;;;;;;;29.07;25.73;;;11.20;99.90;;;;;;5063393;28;20499;-76
2022/09/25 05:22:17;;;;;;;35.80;27.93;;;11.20;99.90;;;;;;5062342;28;20513;-76
2022/09/25 05:24:44;;;;;;;32.50;27.17;;;11.10;99.90;;;;;;5060812;28;21037;-76
2022/09/25 05:27:11;;;;;;;33.17;29.80;;;11.10;99.90;;;;;;5061276;28;20511;-75
2022/09/25 05:29:39;;;;;;;35.40;29.67;;;11.10;99.90;;;;;;5064690;28;20558;-76
2022/09/25 05:32:07;;;;;;;33.87;30.10;;;11.10;99.90;;;;;;5059897;28;20496;-76
2022/09/25 05:34:35;;;;;;;33.03;29.53;;;11.20;99.90;;;;;;5064537;28;20543;-75
2022/09/25 05:37:03;;;;;;;33.50;29.87;;;11.20;99.90;;;;;;5061126;28;20572;-76
2022/09/25 05:39:30;;;;;;;37.53;32.77;;;11.20;99.90;;;;;;5062733;28;20458;-76
2022/09/25 05:41:57;;;;;;;36.60;32.20;;;11.40;99.90;;;;;;5063849;28;20452;-76
2022/09/25 05:44:27;;;;;;;36.33;29.93;;;11.40;99.90;;;;;;5063326;28;20490;-76
2022/09/25 05:46:55;;;;;;;32.60;29.30;;;11.50;99.90;;;;;;5065988;28;20502;-76
2022/09/25 05:49:22;;;;;;;35.63;31.43;;;11.40;99.90;;;;;;5059622;28;20876;-76
2022/09/25 05:51:50;;;;;;;34.10;30.40;;;11.40;99.90;;;;;;5063548;28;20529;-76
2022/09/25 05:54:17;;;;;;;32.10;28.73;;;11.40;99.90;;;;;;5062154;28;21115;-77
2022/09/25 05:56:44;;;;;;;31.20;28.00;;;11.50;99.90;;;;;;5064042;28;20496;-76
2022/09/25 05:59:11;;;;;;;33.83;29.23;;;11.60;99.90;;;;;;5056340;28;20467;-76
2022/09/25 06:01:40;;;;;;;33.57;29.30;;;11.60;99.90;;;;;;5063842;28;20860;-76
2022/09/25 06:04:07;;;;;;;33.80;27.63;;;11.70;99.90;;;;;;5054956;28;20463;-76
2022/09/25 06:06:34;;;;;;;32.67;27.90;;;11.70;99.90;;;;;;5062543;28;20459;-76
2022/09/25 06:09:02;;;;;;;31.23;26.77;;;11.90;99.90;;;;;;5066961;28;20467;-76
2022/09/25 06:11:30;;;;;;;32.43;28.07;;;12.00;99.90;;;;;;5062229;28;20521;-77
2022/09/25 06:13:57;;;;;;;28.80;25.83;;;12.00;99.90;;;;;;5065021;28;20497;-76
2022/09/25 06:16:24;;;;;;;31.93;26.73;;;12.10;99.90;;;;;;5061865;28;20487;-76
2022/09/25 06:18:51;;;;;;;28.00;24.53;;;11.90;99.90;;;;;;5064029;28;20488;-76
2022/09/25 06:21:18;;;;;;;24.80;22.07;;;11.80;99.90;;;;;;5063261;28;20790;-76
2022/09/25 06:23:47;;;;;;;26.03;23.37;;;11.70;99.90;;;;;;5063006;28;20477;-76
2022/09/25 06:26:15;;;;;;;28.13;25.23;;;11.80;99.90;;;;;;5061727;28;20491;-76
2022/09/25 06:28:42;;;;;;;27.83;23.80;;;11.90;99.90;;;;;;5063713;28;20510;-76
2022/09/25 06:31:09;;;;;;;25.80;23.40;;;11.90;99.90;;;;;;5061267;28;21247;-76
2022/09/25 06:33:36;;;;;;;25.67;23.07;;;11.90;99.90;;;;;;5060661;28;20864;-76
2022/09/25 06:36:05;;;;;;;24.67;22.17;;;12.00;99.90;;;;;;5060596;28;20467;-77
2022/09/25 06:38:33;;;;;;;22.60;20.30;;;12.10;99.90;;;;;;5061914;28;20553;-76
2022/09/25 06:41:00;;;;;;;25.60;23.20;;;12.20;99.90;;;;;;5059898;28;20459;-76
2022/09/25 06:43:30;;;;;;;24.20;21.90;;;12.10;99.90;;;;;;5061418;28;21245;-76
2022/09/25 06:46:01;;;;;;;23.60;21.20;;;12.20;99.90;;;;;;5064239;28;20552;-76
2022/09/25 06:48:28;;;;;;;22.50;19.67;;;12.20;99.90;;;;;;5059937;28;20460;-76
2022/09/25 06:50:57;;;;;;;18.60;16.70;;;12.10;99.90;;;;;;5062038;28;20471;-76
2022/09/25 06:53:25;;;;;;;20.60;18.40;;;12.40;99.90;;;;;;5052224;28;20526;-76
2022/09/25 06:55:52;;;;;;;21.37;19.00;;;12.50;99.90;;;;;;5058819;28;20568;-77
2022/09/25 06:58:21;;;;;;;25.03;22.50;;;12.60;99.90;;;;;;5058431;28;20486;-76
2022/09/25 07:00:51;;;;;;;27.53;21.27;;;12.60;99.90;;;;;;5058004;28;20464;-76
2022/09/25 07:06:04;;;;;;;24.77;22.23;;;12.80;99.90;;;;;;5050443;28;20498;-76
2022/09/25 07:08:31;;;;;;;25.67;22.97;;;12.90;99.90;;;;;;5051919;28;20452;-76
2022/09/25 07:11:00;;;;;;;26.03;22.30;;;12.80;99.90;;;;;;5050602;28;20469;-76
2022/09/25 07:13:29;;;;;;;31.27;24.23;;;13.00;99.90;;;;;;5056571;28;21045;-76
2022/09/25 07:15:59;;;;;;;27.60;22.60;;;13.20;99.90;;;;;;5056363;28;20573;-76
2022/09/25 07:18:27;;;;;;;23.17;20.73;;;13.10;99.90;;;;;;5049176;28;20537;-76
2022/09/25 07:20:59;;;;;;;23.70;21.30;;;13.10;99.90;;;;;;5053267;28;20970;-76
2022/09/25 07:23:27;;;;;;;22.77;20.30;;;13.20;99.90;;;;;;5049931;28;20457;-77
2022/09/25 07:25:54;;;;;;;23.43;20.80;;;13.20;99.90;;;;;;5049288;28;20495;-77
2022/09/25 07:28:21;;;;;;;24.93;22.13;;;13.20;99.90;;;;;;5050812;28;20553;-77
2022/09/25 07:30:49;;;;;;;22.73;20.43;;;13.10;99.90;;;;;;5053166;28;20466;-76
2022/09/25 07:33:18;;;;;;;22.97;20.83;;;13.00;99.90;;;;;;5059850;28;20550;-76
2022/09/25 07:35:45;;;;;;;23.63;21.33;;;13.00;99.90;;;;;;5056176;28;20465;-76
2022/09/25 07:38:12;;;;;;;24.23;21.63;;;13.30;99.90;;;;;;5058898;28;20486;-76
2022/09/25 07:40:39;;;;;;;20.30;18.37;;;13.30;99.90;;;;;;5061801;28;20953;-77
2022/09/25 07:43:06;;;;;;;20.80;18.50;;;13.30;99.90;;;;;;5061662;28;20527;-77
2022/09/25 07:45:34;;;;;;;20.70;18.50;;;13.50;99.90;;;;;;5058803;28;20521;-76
2022/09/25 07:48:03;;;;;;;20.93;18.77;;;13.60;99.90;;;;;;5060058;28;20462;-76
2022/09/25 07:50:32;;;;;;;21.13;19.03;;;13.50;99.90;;;;;;5061242;28;20518;-76
2022/09/25 07:52:59;;;;;;;21.33;19.03;;;13.80;99.90;;;;;;5063298;28;20449;-76
2022/09/25 07:55:27;;;;;;;21.10;19.07;;;14.00;99.90;;;;;;5058516;28;21237;-77
2022/09/25 07:57:57;;;;;;;21.70;19.50;;;14.20;99.90;;;;;;5060895;28;20491;-77
2022/09/25 08:00:24;;;;;;;21.23;17.80;;;14.30;99.90;;;;;;5060195;28;20453;-77
2022/09/25 08:02:56;;;;;;;17.70;15.53;;;14.70;99.90;;;;;;5063425;28;20523;-76
2022/09/25 08:05:23;;;;;;;17.87;16.07;;;14.80;99.90;;;;;;5065647;28;20449;-77
2022/09/25 08:07:52;;;;;;;19.10;16.60;;;15.20;99.90;;;;;;5064437;28;20855;-76
2022/09/25 08:10:19;;;;;;;20.23;18.20;;;15.50;99.90;;;;;;5064405;28;20480;-76
2022/09/25 08:12:46;;;;;;;18.97;16.60;;;15.60;99.90;;;;;;5045363;28;20493;-77
2022/09/25 08:15:13;;;;;;;18.60;16.67;;;15.40;99.90;;;;;;5045492;28;20552;-77
2022/09/25 08:17:41;;;;;;;18.10;16.30;;;15.30;99.90;;;;;;5067749;28;20565;-77
2022/09/25 08:20:08;;;;;;;16.87;15.23;;;15.00;99.90;;;;;;5061663;28;20462;-77
2022/09/25 08:22:35;;;;;;;18.23;15.97;;;15.10;99.90;;;;;;5061723;28;20543;-77
2022/09/25 08:25:04;;;;;;;17.83;16.13;;;15.40;99.90;;;;;;5057922;28;20938;-77
2022/09/25 08:27:31;;;;;;;18.60;16.83;;;15.40;99.90;;;;;;5060366;28;20493;-77
2022/09/25 08:29:58;;;;;;;17.20;15.63;;;15.10;99.90;;;;;;5066258;28;21008;-77
2022/09/25 08:32:25;;;;;;;17.53;15.27;;;14.90;99.90;;;;;;5059616;28;20527;-77
2022/09/25 08:34:53;;;;;;;16.73;14.23;;;15.00;99.90;;;;;;5061931;28;20462;-77
2022/09/25 08:37:20;;;;;;;15.93;14.33;;;14.90;99.90;;;;;;5059630;28;20934;-77
2022/09/25 08:39:47;;;;;;;15.20;12.43;;;15.10;99.90;;;;;;5060507;28;20531;-77
2022/09/25 08:42:25;;;;;;;16.23;14.73;;;14.90;99.90;;;;;;5059733;28;21035;-77
2022/09/25 08:49:00;;;;;;;16.60;14.70;;;14.90;99.90;;;;;;5064514;28;20455;-77
2022/09/25 08:50:32;;;;;;;17.97;16.07;;;14.90;99.90;;;;;;5062975;28;20805;-77
2022/09/25 08:53:07;;;;;;;15.77;14.07;;;15.20;99.90;;;;;;5067178;28;20977;-79
2022/09/25 08:58:24;;;;;;;18.77;15.80;;;15.70;99.90;;;;;;5051473;28;20624;-75
2022/09/25 09:00:53;;;;;;;17.30;13.60;;;15.90;99.90;;;;;;5054736;28;20477;-76
2022/09/25 09:03:23;;;;;;;14.73;13.23;;;16.00;99.90;;;;;;5051329;28;20473;-77
2022/09/25 09:05:56;;;;;;;16.47;14.73;;;16.30;99.90;;;;;;5055743;28;21238;-76
2022/09/25 09:08:27;;;;;;;14.27;12.77;;;16.70;99.90;;;;;;5056898;28;20525;-77
2022/09/25 09:10:59;;;;;;;15.40;13.80;;;17.00;99.90;;;;;;5064761;28;20483;-76
2022/09/25 09:13:33;;;;;;;15.93;12.83;;;17.10;99.90;;;;;;5054263;28;20455;-77
2022/09/25 09:16:06;;;;;;;15.93;13.60;;;16.80;99.90;;;;;;5058363;28;20923;-74
2022/09/25 09:18:37;;;;;;;15.57;13.00;;;16.50;99.90;;;;;;5054407;28;21184;-74
2022/09/25 09:21:11;;;;;;;16.00;14.03;;;16.40;99.90;;;;;;5056976;28;20922;-74
2022/09/25 09:23:46;;;;;;;14.17;12.63;;;16.30;99.90;;;;;;5063030;28;20441;-76
2022/09/25 09:26:18;;;;;;;17.97;13.27;;;16.20;99.90;;;;;;5053862;28;20976;-76
2022/09/25 09:29:17;;;;;;;12.83;11.40;;;16.40;99.90;;;;;;5054519;28;20459;-74
2022/09/25 09:31:55;;;;;;;13.17;11.87;;;16.30;99.90;;;;;;5032715;28;20464;-77
2022/09/25 09:34:50;;;;;;;13.27;12.00;;;16.10;99.90;;;;;;5053276;28;20456;-76
2022/09/25 09:37:29;;;;;;;14.80;13.30;;;16.20;99.90;;;;;;5052591;28;20545;-76
2022/09/25 09:40:08;;;;;;;15.07;12.23;;;16.10;99.90;;;;;;5064220;28;20488;-76
2022/09/25 09:42:44;;;;;;;17.40;13.80;;;16.40;99.90;;;;;;5057769;28;20466;-76
2022/09/25 09:45:27;;;;;;;14.30;11.90;;;16.80;99.90;;;;;;5050353;28;20502;-73
2022/09/25 09:48:05;;;;;;;14.10;12.80;;;16.70;99.90;;;;;;5060202;28;20480;-74
2022/09/25 09:50:40;;;;;;;15.77;14.30;;;16.30;99.90;;;;;;5054250;28;20541;-74
2022/09/25 09:53:13;;;;;;;16.80;11.93;;;16.40;99.90;;;;;;5061843;28;20459;-74
2022/09/25 09:55:44;;;;;;;12.60;11.37;;;16.80;99.90;;;;;;5060296;28;20459;-74
2022/09/25 09:58:18;;;;;;;12.97;11.77;;;17.10;99.90;;;;;;5054718;28;20652;-74
2022/09/25 10:00:48;;;;;;;10.40;9.47;;;17.60;99.90;;;;;;5055268;28;20491;-74
2022/09/25 10:03:20;;;;;;;12.73;11.67;;;17.80;99.90;;;;;;5055430;28;20463;-74
2022/09/25 10:05:49;;;;;;;13.10;11.87;;;17.70;99.90;;;;;;5057064;28;20518;-74
2022/09/25 10:08:17;;;;;;;12.97;11.67;;;17.30;99.90;;;;;;5064924;28;20544;-74
2022/09/25 10:10:46;;;;;;;10.60;9.70;;;17.30;99.90;;;;;;5059299;28;20467;-74
2022/09/25 10:13:18;;;;;;;17.40;13.33;;;17.40;99.90;;;;;;5061263;28;20454;-74
2022/09/25 10:15:50;;;;;;;11.23;10.17;;;17.50;99.90;;;;;;5060860;28;20553;-73
2022/09/25 10:18:18;;;;;;;11.73;10.50;;;17.20;99.90;;;;;;5060337;28;20476;-74
2022/09/25 10:20:53;;;;;;;13.07;11.77;;;17.20;99.90;;;;;;5061442;28;20462;-74
2022/09/25 10:23:33;;;;;;;10.60;9.50;;;17.40;99.90;;;;;;5052948;28;20494;-74
2022/09/25 10:26:00;;;;;;;10.40;8.90;;;17.00;99.90;;;;;;5060663;28;20516;-74
2022/09/25 10:28:29;;;;;;;9.67;8.77;;;17.10;99.90;;;;;;5053339;28;20560;-76
2022/09/25 10:31:00;;;;;;;8.60;7.90;;;17.60;99.90;;;;;;5066821;28;20464;-74
2022/09/25 10:33:29;;;;;;;9.50;8.60;;;17.60;99.90;;;;;;5054330;28;20460;-74
2022/09/25 10:35:56;;;;;;;9.63;8.73;;;17.80;99.90;;;;;;5049897;28;20487;-75
2022/09/25 10:38:40;;;;;;;11.20;9.90;;;17.70;99.90;;;;;;5056814;28;20518;-75
2022/09/25 10:41:10;;;;;;;9.77;8.87;;;17.70;99.90;;;;;;5059444;28;20491;-75
2022/09/25 10:43:51;;;;;;;9.77;8.80;;;17.90;99.90;;;;;;5056466;28;20466;-76
2022/09/25 10:50:09;;;;;;;9.50;8.60;;;17.80;99.90;;;;;;5051011;28;20490;-75
2022/09/25 10:52:06;;;;;;;10.23;9.40;;;17.50;99.90;;;;;;5061048;28;20970;-76
2022/09/25 10:54:34;;;;;;;9.30;8.60;;;17.80;99.90;;;;;;5059774;28;20510;-76
2022/09/25 10:57:14;;;;;;;10.13;9.10;;;17.60;99.90;;;;;;5052442;28;20479;-75
2022/09/25 10:59:47;;;;;;;8.53;7.83;;;18.10;99.90;;;;;;5052496;28;20511;-77
2022/09/25 11:02:30;;;;;;;9.27;8.27;;;18.00;99.90;;;;;;5054512;28;20459;-76
2022/09/25 11:04:57;;;;;;;9.80;8.90;;;17.90;99.90;;;;;;5054518;28;20551;-75
2022/09/25 11:07:26;;;;;;;10.80;9.70;;;18.00;99.90;;;;;;5052968;28;20465;-76
2022/09/25 11:09:54;;;;;;;9.37;8.57;;;17.70;99.90;;;;;;5054029;28;20844;-75
2022/09/25 11:12:23;;;;;;;9.67;8.80;;;17.40;99.90;;;;;;5057135;28;20549;-75
2022/09/25 11:14:57;;;;;;;9.50;8.60;;;17.70;99.90;;;;;;5052125;28;20452;-74
2022/09/25 11:17:37;;;;;;;8.57;7.80;;;17.70;99.90;;;;;;5056312;28;20785;-74
2022/09/25 11:20:30;;;;;;;8.23;7.53;;;17.40;99.90;;;;;;5051253;28;20491;-75
2022/09/25 11:23:13;;;;;;;8.77;8.00;;;17.60;99.90;;;;;;5034936;28;20461;-75
2022/09/25 11:25:46;;;;;;;6.23;5.73;;;17.60;99.90;;;;;;5048263;28;21090;-74
2022/09/25 11:28:20;;;;;;;8.87;7.97;;;17.80;99.90;;;;;;5051222;28;20958;-74
2022/09/25 11:30:53;;;;;;;8.03;6.70;;;18.00;99.90;;;;;;5052549;28;20485;-75
2022/09/25 11:33:32;;;;;;;8.87;8.07;;;18.00;99.90;;;;;;5048459;28;21251;-74
2022/09/25 11:36:06;;;;;;;6.87;6.30;;;18.20;99.90;;;;;;5052860;28;21066;-74
2022/09/25 11:41:31;;;;;;;7.77;6.23;;;18.90;99.90;;;;;;5048930;28;20541;-76
2022/09/25 11:44:08;;;;;;;7.47;6.77;;;19.30;99.90;;;;;;5050705;28;20463;-76
2022/09/25 11:46:42;;;;;;;7.30;6.60;;;19.30;99.90;;;;;;5043805;28;20562;-75
2022/09/25 11:49:18;;;;;;;9.70;8.90;;;19.60;99.90;;;;;;5053575;28;20489;-76
2022/09/25 11:52:20;;;;;;;8.07;7.13;;;19.90;99.90;;;;;;5047439;28;20473;-76
2022/09/25 11:55:13;;;;;;;7.70;7.10;;;19.80;99.90;;;;;;5053271;28;20555;-76
2022/09/25 11:57:51;;;;;;;6.97;6.27;;;19.80;99.90;;;;;;5040262;28;20484;-76
2022/09/25 12:00:24;;;;;;;7.17;6.33;;;19.20;99.90;;;;;;5061737;28;20552;-76
2022/09/25 12:03:12;;;;;;;8.73;8.03;;;18.90;99.90;;;;;;5057934;28;20466;-75
2022/09/25 12:05:57;;;;;;;8.30;7.57;;;18.90;99.90;;;;;;5054928;28;20920;-75
2022/09/25 12:08:40;;;;;;;6.67;6.17;;;18.80;99.90;;;;;;5048944;28;20912;-75
2022/09/25 12:11:15;;;;;;;7.20;6.50;;;19.00;99.90;;;;;;5046660;28;20451;-75
2022/09/25 12:13:50;;;;;;;6.67;5.97;;;19.30;99.90;;;;;;5044431;28;20473;-75
2022/09/25 12:16:22;;;;;;;6.17;5.60;;;19.70;99.90;;;;;;5056238;28;20518;-75
2022/09/25 12:19:15;;;;;;;8.10;7.40;;;19.70;99.90;;;;;;5059239;28;20573;-75
2022/09/25 12:21:49;;;;;;;8.70;7.20;;;19.80;99.80;;;;;;5057502;28;20470;-75
2022/09/25 12:24:28;;;;;;;8.03;7.20;;;19.50;99.90;;;;;;5064097;28;20535;-75
2022/09/25 12:27:03;;;;;;;7.53;6.83;;;19.10;99.90;;;;;;5062981;28;20471;-75
2022/09/25 12:29:46;;;;;;;7.57;6.63;;;18.80;99.90;;;;;;5053794;28;20544;-75
2022/09/25 12:32:23;;;;;;;7.93;7.30;;;18.60;99.90;;;;;;5066443;28;20451;-75
2022/09/25 12:35:09;;;;;;;7.27;6.57;;;18.60;99.90;;;;;;5050180;28;20461;-76
2022/09/25 12:37:42;;;;;;;7.90;7.23;;;18.50;99.90;;;;;;5061502;28;20465;-75
2022/09/25 12:40:17;;;;;;;7.70;7.10;;;18.50;99.90;;;;;;5053472;28;20975;-76
2022/09/25 12:42:52;;;;;;;8.07;7.47;;;18.50;99.90;;;;;;5050446;28;20493;-76
2022/09/25 12:45:25;;;;;;;8.90;8.10;;;18.60;99.90;;;;;;5061322;28;20459;-76
2022/09/25 12:48:04;;;;;;;8.57;7.93;;;18.40;99.90;;;;;;5057961;28;20475;-75
2022/09/25 12:50:35;;;;;;;8.20;7.50;;;18.50;99.90;;;;;;5061780;28;20516;-76
2022/09/25 12:53:09;;;;;;;6.93;6.40;;;18.70;99.90;;;;;;5062610;28;20935;-75
2022/09/25 12:55:42;;;;;;;9.77;8.77;;;18.70;99.90;;;;;;5049107;28;20494;-75
2022/09/25 12:58:17;;;;;;;8.57;7.87;;;18.60;99.90;;;;;;5049407;28;20459;-75
2022/09/25 13:00:48;;;;;;;8.57;7.87;;;18.40;99.90;;;;;;5055966;28;21034;-77
2022/09/25 13:03:21;;;;;;;6.87;6.33;;;18.70;99.90;;;;;;5054978;28;20534;-76
2022/09/25 13:05:58;;;;;;;7.40;6.80;;;18.90;99.90;;;;;;5056262;28;20487;-78
2022/09/25 13:08:33;;;;;;;8.27;7.50;;;18.70;99.90;;;;;;5052809;28;20466;-76
2022/09/25 13:11:06;;;;;;;9.43;6.93;;;19.00;99.90;;;;;;5052684;28;20494;-76